sensor_id;sensor_type;location;lat;lon;timestamp;temperature;humidity
16814;DHT22;8524;57.650;11.926;2023-03-19T00:02:05;6.50;99.90
16814;DHT22;8524;57.650;11.926;2023-03-19T00:04:33;6.40;99.90
16814;DHT22;8524;57.650;11.926;2023-03-19T00:07:01;6.40;99.90
16814;DHT22;8524;57.650;11.926;2023-03-19T00:09:28;6.50;99.90
16814;DHT22;8524;57.650;11.926;2023-03-19T00:11:55;6.50;99.90
16814;DHT22;8524;57.650;11.926;2023-03-19T00:14:22;6.50;99.90
16814;DHT22;8524;57.650;11.926;2023-03-19T00:16:49;6.50;99.90
16814;DHT22;8524;57.650;11.926;2023-03-19T00:19:16;6.50;99.90
16814;DHT22;8524;57.650;11.926;2023-03-19T00:21:43;6.50;99.90
16814;DHT22;8524;57.650;11.926;2023-03-19T00:24:12;6.50;99.90
16814;DHT22;8524;57.650;11.926;2023-03-19T00:26:40;6.50;99.90
16814;DHT22;8524;57.650;11.926;2023-03-19T00:29:07;6.50;99.90
16814;DHT22;8524;57.650;11.926;2023-03-19T00:31:35;6.60;99.90
16814;DHT22;8524;57.650;11.926;2023-03-19T00:34:05;6.50;99.90
16814;DHT22;8524;57.650;11.926;2023-03-19T00:36:33;6.50;99.90
16814;DHT22;8524;57.650;11.926;2023-03-19T00:39:00;6.50;99.90
16814;DHT22;8524;57.650;11.926;2023-03-19T00:41:28;6.60;99.90
16814;DHT22;8524;57.650;11.926;2023-03-19T00:43:56;6.60;99.90
16814;DHT22;8524;57.650;11.926;2023-03-19T00:46:24;6.60;99.90
16814;DHT22;8524;57.650;11.926;2023-03-19T00:48:52;6.60;99.90
16814;DHT22;8524;57.650;11.926;2023-03-19T00:51:21;6.60;99.90
16814;DHT22;8524;57.650;11.926;2023-03-19T00:53:48;6.50;99.90
16814;DHT22;8524;57.650;11.926;2023-03-19T00:56:17;6.50;99.90
16814;DHT22;8524;57.650;11.926;2023-03-19T00:58:46;6.50;99.90
16814;DHT22;8524;57.650;11.926;2023-03-19T01:01:15;6.50;99.90
16814;DHT22;8524;57.650;11.926;2023-03-19T01:03:43;6.50;99.90
16814;DHT22;8524;57.650;11.926;2023-03-19T01:06:10;6.50;99.90
16814;DHT22;8524;57.650;11.926;2023-03-19T01:08:38;6.50;99.90
16814;DHT22;8524;57.650;11.926;2023-03-19T01:11:06;6.50;99.90
16814;DHT22;8524;57.650;11.926;2023-03-19T01:13:34;6.50;99.90
16814;DHT22;8524;57.650;11.926;2023-03-19T01:16:02;6.50;99.90
16814;DHT22;8524;57.650;11.926;2023-03-19T01:18:29;6.50;99.90
16814;DHT22;8524;57.650;11.926;2023-03-19T01:20:57;6.50;99.90
16814;DHT22;8524;57.650;11.926;2023-03-19T01:23:24;6.50;99.90
16814;DHT22;8524;57.650;11.926;2023-03-19T01:25:51;6.50;99.90
16814;DHT22;8524;57.650;11.926;2023-03-19T01:28:20;6.50;99.90
16814;DHT22;8524;57.650;11.926;2023-03-19T01:30:47;6.50;99.90
16814;DHT22;8524;57.650;11.926;2023-03-19T01:33:15;6.50;99.90
16814;DHT22;8524;57.650;11.926;2023-03-19T01:35:44;6.40;99.90
16814;DHT22;8524;57.650;11.926;2023-03-19T01:38:12;6.40;99.90
16814;DHT22;8524;57.650;11.926;2023-03-19T01:40:45;6.40;99.90
16814;DHT22;8524;57.650;11.926;2023-03-19T01:43:15;6.30;99.90
16814;DHT22;8524;57.650;11.926;2023-03-19T01:45:44;6.40;99.90
16814;DHT22;8524;57.650;11.926;2023-03-19T01:48:19;6.40;99.90
16814;DHT22;8524;57.650;11.926;2023-03-19T01:50:50;6.30;99.90
16814;DHT22;8524;57.650;11.926;2023-03-19T01:53:22;6.30;99.90
16814;DHT22;8524;57.650;11.926;2023-03-19T01:55:54;6.30;99.90
16814;DHT22;8524;57.650;11.926;2023-03-19T01:58:22;6.30;99.90
16814;DHT22;8524;57.650;11.926;2023-03-19T02:00:49;6.30;99.90
16814;DHT22;8524;57.650;11.926;2023-03-19T02:03:18;6.40;99.90
16814;DHT22;8524;57.650;11.926;2023-03-19T02:05:46;6.30;99.90
16814;DHT22;8524;57.650;11.926;2023-03-19T02:08:15;6.30;99.90
16814;DHT22;8524;57.650;11.926;2023-03-19T02:10:44;6.30;99.90
16814;DHT22;8524;57.650;11.926;2023-03-19T02:13:11;6.30;99.90
16814;DHT22;8524;57.650;11.926;2023-03-19T02:15:39;6.30;99.90
16814;DHT22;8524;57.650;11.926;2023-03-19T02:18:07;6.20;99.90
16814;DHT22;8524;57.650;11.926;2023-03-19T02:20:41;6.30;99.90
16814;DHT22;8524;57.650;11.926;2023-03-19T02:23:14;6.30;99.90
16814;DHT22;8524;57.650;11.926;2023-03-19T02:25:58;6.30;99.90
16814;DHT22;8524;57.650;11.926;2023-03-19T02:28:26;6.30;99.90
16814;DHT22;8524;57.650;11.926;2023-03-19T02:30:54;6.30;99.90
16814;DHT22;8524;57.650;11.926;2023-03-19T02:33:21;6.30;99.90
16814;DHT22;8524;57.650;11.926;2023-03-19T02:35:50;6.20;99.90
16814;DHT22;8524;57.650;11.926;2023-03-19T02:38:18;6.30;99.90
16814;DHT22;8524;57.650;11.926;2023-03-19T02:40:52;6.30;99.90
16814;DHT22;8524;57.650;11.926;2023-03-19T02:43:21;6.40;99.90
16814;DHT22;8524;57.650;11.926;2023-03-19T02:45:48;6.30;99.90
16814;DHT22;8524;57.650;11.926;2023-03-19T02:48:15;6.30;99.90
16814;DHT22;8524;57.650;11.926;2023-03-19T02:50:43;6.30;99.90
16814;DHT22;8524;57.650;11.926;2023-03-19T02:53:10;6.30;99.90
16814;DHT22;8524;57.650;11.926;2023-03-19T02:55:37;6.20;99.90
16814;DHT22;8524;57.650;11.926;2023-03-19T02:58:05;6.30;99.90
16814;DHT22;8524;57.650;11.926;2023-03-19T03:00:32;6.30;99.90
16814;DHT22;8524;57.650;11.926;2023-03-19T03:03:00;6.30;99.90
16814;DHT22;8524;57.650;11.926;2023-03-19T03:05:29;6.30;99.90
16814;DHT22;8524;57.650;11.926;2023-03-19T03:07:56;6.30;99.90
16814;DHT22;8524;57.650;11.926;2023-03-19T03:10:23;6.30;99.90
16814;DHT22;8524;57.650;11.926;2023-03-19T03:12:50;6.30;99.90
16814;DHT22;8524;57.650;11.926;2023-03-19T03:15:18;6.20;99.90
16814;DHT22;8524;57.650;11.926;2023-03-19T03:17:46;6.20;99.90
16814;DHT22;8524;57.650;11.926;2023-03-19T03:20:15;6.20;99.90
16814;DHT22;8524;57.650;11.926;2023-03-19T03:22:42;6.30;99.90
16814;DHT22;8524;57.650;11.926;2023-03-19T03:25:10;6.20;99.90
16814;DHT22;8524;57.650;11.926;2023-03-19T03:27:38;6.30;99.90
16814;DHT22;8524;57.650;11.926;2023-03-19T03:30:06;6.20;99.90
16814;DHT22;8524;57.650;11.926;2023-03-19T03:32:37;6.20;99.90
16814;DHT22;8524;57.650;11.926;2023-03-19T03:35:05;6.30;99.90
16814;DHT22;8524;57.650;11.926;2023-03-19T03:37:32;6.20;99.90
16814;DHT22;8524;57.650;11.926;2023-03-19T03:39:59;6.20;99.90
16814;DHT22;8524;57.650;11.926;2023-03-19T03:42:31;6.20;99.90
16814;DHT22;8524;57.650;11.926;2023-03-19T03:44:58;6.30;99.90
16814;DHT22;8524;57.650;11.926;2023-03-19T03:47:25;6.30;99.90
16814;DHT22;8524;57.650;11.926;2023-03-19T03:49:54;6.20;99.90
16814;DHT22;8524;57.650;11.926;2023-03-19T03:52:21;6.20;99.90
16814;DHT22;8524;57.650;11.926;2023-03-19T03:54:48;6.20;99.90
16814;DHT22;8524;57.650;11.926;2023-03-19T03:57:15;6.20;99.90
16814;DHT22;8524;57.650;11.926;2023-03-19T03:59:42;6.30;99.90
16814;DHT22;8524;57.650;11.926;2023-03-19T04:02:09;6.20;99.90
16814;DHT22;8524;57.650;11.926;2023-03-19T04:04:36;6.20;99.90
16814;DHT22;8524;57.650;11.926;2023-03-19T04:07:05;6.20;99.90
16814;DHT22;8524;57.650;11.926;2023-03-19T04:09:32;6.20;99.90
16814;DHT22;8524;57.650;11.926;2023-03-19T04:11:59;6.20;99.90
16814;DHT22;8524;57.650;11.926;2023-03-19T04:14:26;6.20;99.90
16814;DHT22;8524;57.650;11.926;2023-03-19T04:16:53;6.20;99.90
16814;DHT22;8524;57.650;11.926;2023-03-19T04:19:20;6.10;99.90
16814;DHT22;8524;57.650;11.926;2023-03-19T04:21:47;6.20;99.90
16814;DHT22;8524;57.650;11.926;2023-03-19T04:24:16;6.20;99.90
16814;DHT22;8524;57.650;11.926;2023-03-19T04:26:43;6.20;99.90
16814;DHT22;8524;57.650;11.926;2023-03-19T04:29:11;6.20;99.90
16814;DHT22;8524;57.650;11.926;2023-03-19T04:31:38;6.20;99.90
16814;DHT22;8524;57.650;11.926;2023-03-19T04:34:05;6.20;99.90
16814;DHT22;8524;57.650;11.926;2023-03-19T04:36:32;6.20;99.90
16814;DHT22;8524;57.650;11.926;2023-03-19T04:38:59;6.20;99.90
16814;DHT22;8524;57.650;11.926;2023-03-19T04:41:28;6.20;99.90
16814;DHT22;8524;57.650;11.926;2023-03-19T04:43:55;6.20;99.90
16814;DHT22;8524;57.650;11.926;2023-03-19T04:46:22;6.20;99.90
16814;DHT22;8524;57.650;11.926;2023-03-19T04:48:49;6.20;99.90
16814;DHT22;8524;57.650;11.926;2023-03-19T04:51:16;6.20;99.90
16814;DHT22;8524;57.650;11.926;2023-03-19T04:53:46;6.20;99.90
16814;DHT22;8524;57.650;11.926;2023-03-19T04:56:15;6.10;99.90
16814;DHT22;8524;57.650;11.926;2023-03-19T04:58:44;6.10;99.90
16814;DHT22;8524;57.650;11.926;2023-03-19T05:01:11;6.10;99.90
16814;DHT22;8524;57.650;11.926;2023-03-19T05:03:38;6.10;99.90
16814;DHT22;8524;57.650;11.926;2023-03-19T05:06:05;6.10;99.90
16814;DHT22;8524;57.650;11.926;2023-03-19T05:08:32;6.10;99.90
16814;DHT22;8524;57.650;11.926;2023-03-19T05:10:59;6.10;99.90
16814;DHT22;8524;57.650;11.926;2023-03-19T05:13:27;6.20;99.90
16814;DHT22;8524;57.650;11.926;2023-03-19T05:15:55;6.20;99.90
16814;DHT22;8524;57.650;11.926;2023-03-19T05:18:22;6.20;99.90
16814;DHT22;8524;57.650;11.926;2023-03-19T05:20:50;6.20;99.90
16814;DHT22;8524;57.650;11.926;2023-03-19T05:23:18;6.20;99.90
16814;DHT22;8524;57.650;11.926;2023-03-19T05:25:45;6.20;99.90
16814;DHT22;8524;57.650;11.926;2023-03-19T05:28:12;6.20;99.90
16814;DHT22;8524;57.650;11.926;2023-03-19T05:30:40;6.20;99.90
16814;DHT22;8524;57.650;11.926;2023-03-19T05:33:09;6.10;99.90
16814;DHT22;8524;57.650;11.926;2023-03-19T05:35:36;6.10;99.90
16814;DHT22;8524;57.650;11.926;2023-03-19T05:38:03;6.10;99.90
16814;DHT22;8524;57.650;11.926;2023-03-19T05:40:31;6.10;99.90
16814;DHT22;8524;57.650;11.926;2023-03-19T05:42:59;6.10;99.90
16814;DHT22;8524;57.650;11.926;2023-03-19T05:45:26;6.10;99.90
16814;DHT22;8524;57.650;11.926;2023-03-19T05:47:53;6.10;99.90
16814;DHT22;8524;57.650;11.926;2023-03-19T05:50:22;6.10;99.90
16814;DHT22;8524;57.650;11.926;2023-03-19T05:52:49;6.10;99.90
16814;DHT22;8524;57.650;11.926;2023-03-19T05:55:16;6.10;99.90
16814;DHT22;8524;57.650;11.926;2023-03-19T05:57:43;6.20;99.90
16814;DHT22;8524;57.650;11.926;2023-03-19T06:00:11;6.30;99.90
16814;DHT22;8524;57.650;11.926;2023-03-19T06:02:38;6.30;99.90
16814;DHT22;8524;57.650;11.926;2023-03-19T06:05:06;6.20;99.90
16814;DHT22;8524;57.650;11.926;2023-03-19T06:07:35;6.30;99.90
16814;DHT22;8524;57.650;11.926;2023-03-19T06:10:03;6.30;99.90
16814;DHT22;8524;57.650;11.926;2023-03-19T06:12:31;6.30;99.90
16814;DHT22;8524;57.650;11.926;2023-03-19T06:14:58;6.30;99.90
16814;DHT22;8524;57.650;11.926;2023-03-19T06:17:25;6.30;99.90
16814;DHT22;8524;57.650;11.926;2023-03-19T06:19:52;6.30;99.90
16814;DHT22;8524;57.650;11.926;2023-03-19T06:22:19;6.30;99.90
16814;DHT22;8524;57.650;11.926;2023-03-19T06:24:48;6.30;99.90
16814;DHT22;8524;57.650;11.926;2023-03-19T06:27:15;6.30;99.90
16814;DHT22;8524;57.650;11.926;2023-03-19T06:29:42;6.30;99.90
16814;DHT22;8524;57.650;11.926;2023-03-19T06:32:09;6.30;99.90
16814;DHT22;8524;57.650;11.926;2023-03-19T06:34:36;6.30;99.90
16814;DHT22;8524;57.650;11.926;2023-03-19T06:37:03;6.30;99.90
16814;DHT22;8524;57.650;11.926;2023-03-19T06:39:30;6.40;99.90
16814;DHT22;8524;57.650;11.926;2023-03-19T06:41:59;6.40;99.90
16814;DHT22;8524;57.650;11.926;2023-03-19T06:44:26;6.50;99.90
16814;DHT22;8524;57.650;11.926;2023-03-19T06:46:53;6.50;99.90
16814;DHT22;8524;57.650;11.926;2023-03-19T06:49:20;6.60;99.90
16814;DHT22;8524;57.650;11.926;2023-03-19T06:51:47;6.60;99.90
16814;DHT22;8524;57.650;11.926;2023-03-19T06:54:14;6.60;99.90
16814;DHT22;8524;57.650;11.926;2023-03-19T06:56:41;6.70;99.90
16814;DHT22;8524;57.650;11.926;2023-03-19T06:59:10;6.70;99.90
16814;DHT22;8524;57.650;11.926;2023-03-19T07:01:38;6.80;99.90
16814;DHT22;8524;57.650;11.926;2023-03-19T07:04:05;6.90;99.90
16814;DHT22;8524;57.650;11.926;2023-03-19T07:06:32;6.80;99.90
16814;DHT22;8524;57.650;11.926;2023-03-19T07:08:59;6.70;99.90
16814;DHT22;8524;57.650;11.926;2023-03-19T07:11:26;6.70;99.90
16814;DHT22;8524;57.650;11.926;2023-03-19T07:13:53;6.70;99.90
16814;DHT22;8524;57.650;11.926;2023-03-19T07:16:21;6.70;99.90
16814;DHT22;8524;57.650;11.926;2023-03-19T07:18:48;6.80;99.90
16814;DHT22;8524;57.650;11.926;2023-03-19T07:21:16;6.70;99.90
16814;DHT22;8524;57.650;11.926;2023-03-19T07:23:43;6.70;99.90
16814;DHT22;8524;57.650;11.926;2023-03-19T07:26:11;6.80;99.90
16814;DHT22;8524;57.650;11.926;2023-03-19T07:28:38;6.80;99.90
16814;DHT22;8524;57.650;11.926;2023-03-19T07:31:05;6.80;99.90
16814;DHT22;8524;57.650;11.926;2023-03-19T07:33:34;6.90;99.90
16814;DHT22;8524;57.650;11.926;2023-03-19T07:36:01;6.80;99.90
16814;DHT22;8524;57.650;11.926;2023-03-19T07:38:30;6.80;99.90
16814;DHT22;8524;57.650;11.926;2023-03-19T07:40:57;6.80;99.90
16814;DHT22;8524;57.650;11.926;2023-03-19T07:43:24;6.80;99.90
16814;DHT22;8524;57.650;11.926;2023-03-19T07:45:51;6.80;99.90
16814;DHT22;8524;57.650;11.926;2023-03-19T07:48:18;6.90;99.90
16814;DHT22;8524;57.650;11.926;2023-03-19T07:50:49;6.90;99.90
16814;DHT22;8524;57.650;11.926;2023-03-19T07:53:16;7.10;99.90
16814;DHT22;8524;57.650;11.926;2023-03-19T07:55:43;7.10;99.90
16814;DHT22;8524;57.650;11.926;2023-03-19T07:58:10;7.10;99.90
16814;DHT22;8524;57.650;11.926;2023-03-19T08:00:37;6.90;99.90
16814;DHT22;8524;57.650;11.926;2023-03-19T08:03:04;7.00;99.90
16814;DHT22;8524;57.650;11.926;2023-03-19T08:05:31;7.20;99.90
16814;DHT22;8524;57.650;11.926;2023-03-19T08:07:59;7.20;99.90
16814;DHT22;8524;57.650;11.926;2023-03-19T08:10:26;7.20;99.90
16814;DHT22;8524;57.650;11.926;2023-03-19T08:12:53;7.30;99.90
16814;DHT22;8524;57.650;11.926;2023-03-19T08:15:20;7.30;99.90
16814;DHT22;8524;57.650;11.926;2023-03-19T08:17:47;7.40;99.90
16814;DHT22;8524;57.650;11.926;2023-03-19T08:20:15;7.40;99.90
16814;DHT22;8524;57.650;11.926;2023-03-19T08:22:42;7.60;99.90
16814;DHT22;8524;57.650;11.926;2023-03-19T08:25:10;7.60;99.90
16814;DHT22;8524;57.650;11.926;2023-03-19T08:27:38;7.60;99.90
16814;DHT22;8524;57.650;11.926;2023-03-19T08:30:06;7.70;99.90
16814;DHT22;8524;57.650;11.926;2023-03-19T08:32:35;8.00;99.90
16814;DHT22;8524;57.650;11.926;2023-03-19T08:35:03;8.00;99.90
16814;DHT22;8524;57.650;11.926;2023-03-19T08:37:30;8.10;99.90
16814;DHT22;8524;57.650;11.926;2023-03-19T08:39:58;8.10;99.90
16814;DHT22;8524;57.650;11.926;2023-03-19T08:42:26;8.10;99.90
16814;DHT22;8524;57.650;11.926;2023-03-19T08:44:53;8.10;99.90
16814;DHT22;8524;57.650;11.926;2023-03-19T08:47:20;8.30;99.90
16814;DHT22;8524;57.650;11.926;2023-03-19T08:49:49;8.40;99.90
16814;DHT22;8524;57.650;11.926;2023-03-19T08:52:16;8.50;99.90
16814;DHT22;8524;57.650;11.926;2023-03-19T08:54:43;8.60;99.90
16814;DHT22;8524;57.650;11.926;2023-03-19T08:57:10;8.60;99.90
16814;DHT22;8524;57.650;11.926;2023-03-19T08:59:41;8.80;99.90
16814;DHT22;8524;57.650;11.926;2023-03-19T09:02:09;9.20;99.90
16814;DHT22;8524;57.650;11.926;2023-03-19T09:04:39;9.30;99.90
16814;DHT22;8524;57.650;11.926;2023-03-19T09:07:05;9.50;99.90
16814;DHT22;8524;57.650;11.926;2023-03-19T09:09:33;9.70;99.90
16814;DHT22;8524;57.650;11.926;2023-03-19T09:12:00;9.50;99.90
16814;DHT22;8524;57.650;11.926;2023-03-19T09:14:26;9.30;99.90
16814;DHT22;8524;57.650;11.926;2023-03-19T09:16:55;9.30;99.90
16814;DHT22;8524;57.650;11.926;2023-03-19T09:19:22;9.20;99.90
16814;DHT22;8524;57.650;11.926;2023-03-19T09:21:49;9.30;99.90
16814;DHT22;8524;57.650;11.926;2023-03-19T09:24:16;9.10;99.90
16814;DHT22;8524;57.650;11.926;2023-03-19T09:26:43;9.30;99.90
16814;DHT22;8524;57.650;11.926;2023-03-19T09:29:10;9.30;99.90
16814;DHT22;8524;57.650;11.926;2023-03-19T09:31:37;9.20;99.90
16814;DHT22;8524;57.650;11.926;2023-03-19T09:34:06;9.40;99.90
16814;DHT22;8524;57.650;11.926;2023-03-19T09:36:34;9.50;99.90
16814;DHT22;8524;57.650;11.926;2023-03-19T09:39:02;9.60;99.90
16814;DHT22;8524;57.650;11.926;2023-03-19T09:41:34;9.70;99.90
16814;DHT22;8524;57.650;11.926;2023-03-19T09:44:04;9.60;99.90
16814;DHT22;8524;57.650;11.926;2023-03-19T09:46:40;9.60;99.90
16814;DHT22;8524;57.650;11.926;2023-03-19T09:49:15;9.50;99.90
16814;DHT22;8524;57.650;11.926;2023-03-19T09:51:48;9.60;99.90
16814;DHT22;8524;57.650;11.926;2023-03-19T09:54:24;9.30;99.90
16814;DHT22;8524;57.650;11.926;2023-03-19T09:56:52;9.40;99.90
16814;DHT22;8524;57.650;11.926;2023-03-19T09:59:20;9.30;99.90
16814;DHT22;8524;57.650;11.926;2023-03-19T10:01:53;9.30;99.90
16814;DHT22;8524;57.650;11.926;2023-03-19T10:04:43;9.40;99.90
16814;DHT22;8524;57.650;11.926;2023-03-19T10:07:24;9.30;99.90
16814;DHT22;8524;57.650;11.926;2023-03-19T10:10:14;9.20;99.90
16814;DHT22;8524;57.650;11.926;2023-03-19T10:12:50;9.20;99.90
16814;DHT22;8524;57.650;11.926;2023-03-19T10:15:23;9.20;99.90
16814;DHT22;8524;57.650;11.926;2023-03-19T10:17:56;9.40;99.90
16814;DHT22;8524;57.650;11.926;2023-03-19T10:20:39;9.30;99.90
16814;DHT22;8524;57.650;11.926;2023-03-19T10:23:33;9.20;99.90
16814;DHT22;8524;57.650;11.926;2023-03-19T10:26:05;9.50;99.90
16814;DHT22;8524;57.650;11.926;2023-03-19T10:28:35;9.70;99.90
16814;DHT22;8524;57.650;11.926;2023-03-19T10:31:24;9.50;99.90
16814;DHT22;8524;57.650;11.926;2023-03-19T10:34:10;9.50;99.90
16814;DHT22;8524;57.650;11.926;2023-03-19T10:36:40;9.40;99.90
16814;DHT22;8524;57.650;11.926;2023-03-19T10:39:07;9.40;99.90
16814;DHT22;8524;57.650;11.926;2023-03-19T10:41:43;9.40;99.90
16814;DHT22;8524;57.650;11.926;2023-03-19T10:44:18;9.40;99.90
16814;DHT22;8524;57.650;11.926;2023-03-19T10:46:47;9.10;99.90
16814;DHT22;8524;57.650;11.926;2023-03-19T10:49:14;9.20;99.90
16814;DHT22;8524;57.650;11.926;2023-03-19T10:51:44;9.30;99.90
16814;DHT22;8524;57.650;11.926;2023-03-19T10:54:29;9.50;99.90
16814;DHT22;8524;57.650;11.926;2023-03-19T10:56:58;9.40;99.90
16814;DHT22;8524;57.650;11.926;2023-03-19T10:59:30;9.70;99.90
16814;DHT22;8524;57.650;11.926;2023-03-19T11:02:00;9.60;99.90
16814;DHT22;8524;57.650;11.926;2023-03-19T11:04:28;9.60;99.90
16814;DHT22;8524;57.650;11.926;2023-03-19T11:07:09;9.60;99.90
16814;DHT22;8524;57.650;11.926;2023-03-19T11:09:38;9.40;99.90
16814;DHT22;8524;57.650;11.926;2023-03-19T11:12:13;9.20;99.90
16814;DHT22;8524;57.650;11.926;2023-03-19T11:14:44;9.10;99.90
16814;DHT22;8524;57.650;11.926;2023-03-19T11:17:24;9.10;99.90
16814;DHT22;8524;57.650;11.926;2023-03-19T11:19:52;9.30;99.90
16814;DHT22;8524;57.650;11.926;2023-03-19T11:22:23;9.50;99.90
16814;DHT22;8524;57.650;11.926;2023-03-19T11:24:53;9.60;99.90
16814;DHT22;8524;57.650;11.926;2023-03-19T11:27:28;9.70;99.90
16814;DHT22;8524;57.650;11.926;2023-03-19T11:29:56;9.20;99.90
16814;DHT22;8524;57.650;11.926;2023-03-19T11:32:55;9.30;99.90
16814;DHT22;8524;57.650;11.926;2023-03-19T11:35:28;9.40;99.90
16814;DHT22;8524;57.650;11.926;2023-03-19T11:37:59;9.40;99.90
16814;DHT22;8524;57.650;11.926;2023-03-19T11:40:33;9.30;99.90
16814;DHT22;8524;57.650;11.926;2023-03-19T11:43:36;9.60;99.90
16814;DHT22;8524;57.650;11.926;2023-03-19T11:46:13;9.90;99.90
16814;DHT22;8524;57.650;11.926;2023-03-19T11:48:52;9.80;99.90
16814;DHT22;8524;57.650;11.926;2023-03-19T11:51:27;9.70;99.90
16814;DHT22;8524;57.650;11.926;2023-03-19T11:54:03;9.70;99.90
16814;DHT22;8524;57.650;11.926;2023-03-19T11:56:39;9.70;99.90
16814;DHT22;8524;57.650;11.926;2023-03-19T11:59:20;9.60;99.90
16814;DHT22;8524;57.650;11.926;2023-03-19T12:02:03;9.60;99.90
16814;DHT22;8524;57.650;11.926;2023-03-19T12:04:59;9.60;99.90
16814;DHT22;8524;57.650;11.926;2023-03-19T12:07:31;9.70;99.90
16814;DHT22;8524;57.650;11.926;2023-03-19T12:13:13;9.90;99.90
16814;DHT22;8524;57.650;11.926;2023-03-19T12:15:49;10.10;99.90
16814;DHT22;8524;57.650;11.926;2023-03-19T12:18:32;10.30;99.90
16814;DHT22;8524;57.650;11.926;2023-03-19T12:21:07;10.10;99.90
16814;DHT22;8524;57.650;11.926;2023-03-19T12:23:44;10.10;99.90
16814;DHT22;8524;57.650;11.926;2023-03-19T12:26:20;10.30;99.90
16814;DHT22;8524;57.650;11.926;2023-03-19T12:28:56;10.10;99.90
16814;DHT22;8524;57.650;11.926;2023-03-19T12:31:41;10.40;99.90
16814;DHT22;8524;57.650;11.926;2023-03-19T12:34:21;10.80;99.90
16814;DHT22;8524;57.650;11.926;2023-03-19T12:37:06;10.80;99.90
16814;DHT22;8524;57.650;11.926;2023-03-19T12:39:37;11.00;99.90
16814;DHT22;8524;57.650;11.926;2023-03-19T12:42:11;10.90;99.90
16814;DHT22;8524;57.650;11.926;2023-03-19T12:44:44;10.50;99.90
16814;DHT22;8524;57.650;11.926;2023-03-19T12:47:15;10.50;99.90
16814;DHT22;8524;57.650;11.926;2023-03-19T12:49:47;10.40;99.90
16814;DHT22;8524;57.650;11.926;2023-03-19T12:52:19;10.50;99.90
16814;DHT22;8524;57.650;11.926;2023-03-19T12:54:55;10.80;99.90
16814;DHT22;8524;57.650;11.926;2023-03-19T12:57:31;11.00;99.90
16814;DHT22;8524;57.650;11.926;2023-03-19T13:00:03;11.00;99.90
16814;DHT22;8524;57.650;11.926;2023-03-19T13:02:36;11.20;99.90
16814;DHT22;8524;57.650;11.926;2023-03-19T13:05:08;11.50;99.90
16814;DHT22;8524;57.650;11.926;2023-03-19T13:07:44;11.50;99.90
16814;DHT22;8524;57.650;11.926;2023-03-19T13:10:15;11.60;99.90
16814;DHT22;8524;57.650;11.926;2023-03-19T13:12:45;11.70;99.90
16814;DHT22;8524;57.650;11.926;2023-03-19T13:15:18;11.80;99.90
16814;DHT22;8524;57.650;11.926;2023-03-19T13:17:55;11.80;99.90
16814;DHT22;8524;57.650;11.926;2023-03-19T13:20:29;11.90;99.90
16814;DHT22;8524;57.650;11.926;2023-03-19T13:23:01;11.70;99.90
16814;DHT22;8524;57.650;11.926;2023-03-19T13:25:33;11.90;99.90
16814;DHT22;8524;57.650;11.926;2023-03-19T13:28:05;11.90;99.90
16814;DHT22;8524;57.650;11.926;2023-03-19T13:30:33;12.00;99.90
16814;DHT22;8524;57.650;11.926;2023-03-19T13:33:05;11.90;99.90
16814;DHT22;8524;57.650;11.926;2023-03-19T13:35:37;12.00;99.90
16814;DHT22;8524;57.650;11.926;2023-03-19T13:38:17;11.80;99.90
16814;DHT22;8524;57.650;11.926;2023-03-19T13:40:47;11.70;99.90
16814;DHT22;8524;57.650;11.926;2023-03-19T13:43:42;11.60;99.90
16814;DHT22;8524;57.650;11.926;2023-03-19T13:46:38;11.60;99.90
16814;DHT22;8524;57.650;11.926;2023-03-19T13:49:25;11.40;99.90
16814;DHT22;8524;57.650;11.926;2023-03-19T13:51:58;11.40;99.90
16814;DHT22;8524;57.650;11.926;2023-03-19T13:54:37;11.50;99.90
16814;DHT22;8524;57.650;11.926;2023-03-19T13:57:20;11.60;99.90
16814;DHT22;8524;57.650;11.926;2023-03-19T14:03:13;11.50;99.90
16814;DHT22;8524;57.650;11.926;2023-03-19T14:05:47;11.60;99.90
16814;DHT22;8524;57.650;11.926;2023-03-19T14:08:16;11.80;99.90
16814;DHT22;8524;57.650;11.926;2023-03-19T14:10:46;11.90;99.90
16814;DHT22;8524;57.650;11.926;2023-03-19T14:13:20;11.80;99.90
16814;DHT22;8524;57.650;11.926;2023-03-19T14:15:52;11.80;99.90
16814;DHT22;8524;57.650;11.926;2023-03-19T14:18:28;11.80;99.90
16814;DHT22;8524;57.650;11.926;2023-03-19T14:20:58;11.80;99.90
16814;DHT22;8524;57.650;11.926;2023-03-19T14:23:27;11.60;99.90
16814;DHT22;8524;57.650;11.926;2023-03-19T14:28:47;11.70;99.90
16814;DHT22;8524;57.650;11.926;2023-03-19T14:31:21;11.60;99.90
16814;DHT22;8524;57.650;11.926;2023-03-19T14:33:54;11.80;99.90
16814;DHT22;8524;57.650;11.926;2023-03-19T14:36:22;11.80;99.90
16814;DHT22;8524;57.650;11.926;2023-03-19T14:38:51;11.80;99.90
16814;DHT22;8524;57.650;11.926;2023-03-19T14:41:21;11.70;99.90
16814;DHT22;8524;57.650;11.926;2023-03-19T14:44:26;11.70;99.90
16814;DHT22;8524;57.650;11.926;2023-03-19T14:47:22;11.80;99.90
16814;DHT22;8524;57.650;11.926;2023-03-19T14:50:02;11.70;99.90
16814;DHT22;8524;57.650;11.926;2023-03-19T14:52:35;11.70;99.90
16814;DHT22;8524;57.650;11.926;2023-03-19T14:55:09;11.60;99.90
16814;DHT22;8524;57.650;11.926;2023-03-19T14:57:37;11.60;99.90
16814;DHT22;8524;57.650;11.926;2023-03-19T15:00:06;11.70;99.90
16814;DHT22;8524;57.650;11.926;2023-03-19T15:02:43;11.60;99.90
16814;DHT22;8524;57.650;11.926;2023-03-19T15:05:14;11.60;99.90
16814;DHT22;8524;57.650;11.926;2023-03-19T15:07:45;11.50;99.90
16814;DHT22;8524;57.650;11.926;2023-03-19T15:10:15;11.50;99.90
16814;DHT22;8524;57.650;11.926;2023-03-19T15:13:05;11.50;99.90
16814;DHT22;8524;57.650;11.926;2023-03-19T15:15:56;11.40;99.90
16814;DHT22;8524;57.650;11.926;2023-03-19T15:18:27;11.40;99.90
16814;DHT22;8524;57.650;11.926;2023-03-19T15:20:55;11.20;99.90
16814;DHT22;8524;57.650;11.926;2023-03-19T15:23:25;11.20;99.90
16814;DHT22;8524;57.650;11.926;2023-03-19T15:25:55;11.20;99.90
16814;DHT22;8524;57.650;11.926;2023-03-19T15:28:23;11.20;99.90
16814;DHT22;8524;57.650;11.926;2023-03-19T15:30:57;11.20;99.90
16814;DHT22;8524;57.650;11.926;2023-03-19T15:33:31;11.20;99.90
16814;DHT22;8524;57.650;11.926;2023-03-19T15:36:01;11.20;99.90
16814;DHT22;8524;57.650;11.926;2023-03-19T15:38:32;11.20;99.90
16814;DHT22;8524;57.650;11.926;2023-03-19T15:41:01;11.10;99.90
16814;DHT22;8524;57.650;11.926;2023-03-19T15:43:29;11.10;99.90
16814;DHT22;8524;57.650;11.926;2023-03-19T15:45:56;11.20;99.90
16814;DHT22;8524;57.650;11.926;2023-03-19T15:48:31;11.10;99.90
16814;DHT22;8524;57.650;11.926;2023-03-19T15:51:00;11.10;99.90
16814;DHT22;8524;57.650;11.926;2023-03-19T15:53:32;11.10;99.90
16814;DHT22;8524;57.650;11.926;2023-03-19T15:56:02;11.20;99.90
16814;DHT22;8524;57.650;11.926;2023-03-19T15:58:31;11.20;99.90
16814;DHT22;8524;57.650;11.926;2023-03-19T16:01:05;11.20;99.90
16814;DHT22;8524;57.650;11.926;2023-03-19T16:03:38;11.10;99.90
16814;DHT22;8524;57.650;11.926;2023-03-19T16:06:11;11.00;99.90
16814;DHT22;8524;57.650;11.926;2023-03-19T16:08:45;11.00;99.90
16814;DHT22;8524;57.650;11.926;2023-03-19T16:11:21;11.00;99.90
16814;DHT22;8524;57.650;11.926;2023-03-19T16:13:58;11.00;99.90